createdAt,value
2018-07-05T00:00:11.471Z,20.78
2018-07-05T00:02:04.612Z,20.72
2018-07-05T00:03:04.566Z,20.82
2018-07-05T00:04:57.747Z,20.78
2018-07-05T00:05:57.685Z,20.74
2018-07-05T00:07:50.893Z,20.55
2018-07-05T00:08:50.789Z,20.51
2018-07-05T00:10:43.807Z,20.51
2018-07-05T00:11:43.753Z,20.51
2018-07-05T00:13:36.767Z,20.41
2018-07-05T00:14:36.727Z,20.44
2018-07-05T00:16:29.598Z,20.44
2018-07-05T00:17:29.552Z,20.40
2018-07-05T00:19:22.417Z,20.28
2018-07-05T00:20:22.344Z,20.34
2018-07-05T00:22:15.337Z,20.31
2018-07-05T00:23:15.303Z,20.31
2018-07-05T00:25:08.129Z,20.29
2018-07-05T00:26:08.093Z,20.40
2018-07-05T00:28:01.238Z,20.32
2018-07-05T00:29:01.208Z,20.34
2018-07-05T00:30:54.233Z,20.34
2018-07-05T00:31:54.179Z,20.28
2018-07-05T00:33:47.185Z,20.32
2018-07-05T00:34:47.153Z,20.21
2018-07-05T00:36:39.979Z,20.21
2018-07-05T00:37:39.934Z,20.18
2018-07-05T00:39:32.936Z,20.19
2018-07-05T00:40:32.893Z,20.22
2018-07-05T00:42:26.034Z,20.31
2018-07-05T00:43:25.990Z,20.18
2018-07-05T00:45:19.038Z,20.26
2018-07-05T00:46:18.985Z,20.31
2018-07-05T00:48:11.804Z,20.34
2018-07-05T00:49:11.780Z,20.31
2018-07-05T00:51:04.610Z,20.29
2018-07-05T00:52:04.570Z,20.26
2018-07-05T00:53:57.717Z,20.29
2018-07-05T00:54:57.680Z,20.31
2018-07-05T00:56:50.690Z,20.32
2018-07-05T00:57:50.640Z,20.36
2018-07-05T00:59:43.686Z,20.31
2018-07-05T01:00:43.654Z,20.31
2018-07-05T01:02:36.783Z,20.32
2018-07-05T01:03:36.744Z,20.29
2018-07-05T01:05:29.940Z,20.32
2018-07-05T01:06:29.920Z,20.28
2018-07-05T01:08:22.746Z,20.31
2018-07-05T01:09:22.695Z,20.31
2018-07-05T01:11:15.555Z,20.28
2018-07-05T01:12:15.494Z,20.29
2018-07-05T01:14:08.487Z,20.29
2018-07-05T01:15:08.445Z,20.21
2018-07-05T01:17:01.333Z,20.31
2018-07-05T01:18:01.270Z,20.28
2018-07-05T01:19:54.415Z,20.21
2018-07-05T01:20:54.353Z,20.21
2018-07-05T01:22:47.384Z,20.24
2018-07-05T01:23:47.341Z,20.16
2018-07-05T01:25:40.329Z,20.16
2018-07-05T01:26:40.301Z,20.18
2018-07-05T01:28:33.325Z,20.22
2018-07-05T01:29:33.270Z,20.19
2018-07-05T01:31:26.266Z,20.24
2018-07-05T01:32:26.236Z,20.16
2018-07-05T01:34:19.506Z,20.22
2018-07-05T01:35:19.356Z,20.25
2018-07-05T01:37:12.351Z,20.21
2018-07-05T01:38:12.316Z,20.19
2018-07-05T01:40:05.322Z,20.11
2018-07-05T01:41:05.283Z,20.04
2018-07-05T01:42:58.390Z,20.07
2018-07-05T01:43:58.348Z,20.07
2018-07-05T01:45:51.337Z,20.11
2018-07-05T01:46:51.313Z,20.09
2018-07-05T01:48:44.637Z,20.04
2018-07-05T01:49:44.598Z,19.99
2018-07-05T01:51:37.588Z,20.03
2018-07-05T01:52:37.557Z,20.06
2018-07-05T01:54:30.796Z,20.02
2018-07-05T01:55:30.675Z,20.02
2018-07-05T01:57:23.491Z,20.02
2018-07-05T01:58:23.451Z,20.00
2018-07-05T02:00:16.484Z,19.85
2018-07-05T02:01:16.412Z,19.95
2018-07-05T02:03:09.630Z,19.84
2018-07-05T02:04:09.531Z,19.79
2018-07-05T02:06:02.539Z,19.88
2018-07-05T02:07:02.497Z,19.76
2018-07-05T02:08:55.526Z,19.77
2018-07-05T02:09:55.502Z,19.76
2018-07-05T02:11:48.346Z,19.82
2018-07-05T02:12:48.301Z,19.76
2018-07-05T02:14:41.303Z,19.82
2018-07-05T02:15:41.251Z,19.76
2018-07-05T02:17:34.308Z,19.71
2018-07-05T02:18:34.276Z,19.64
2018-07-05T02:20:27.108Z,19.64
2018-07-05T02:21:27.057Z,19.69
2018-07-05T02:23:20.103Z,19.66
2018-07-05T02:24:20.039Z,19.64
2018-07-05T02:26:13.063Z,19.70
2018-07-05T02:27:13.089Z,19.64
2018-07-05T02:29:06.187Z,19.66
2018-07-05T02:30:06.120Z,19.64
2018-07-05T02:31:58.969Z,19.63
2018-07-05T02:32:58.900Z,19.64
2018-07-05T02:34:51.898Z,19.70
2018-07-05T02:35:51.908Z,19.59
2018-07-05T02:37:45.104Z,19.62
2018-07-05T02:38:44.985Z,19.67
2018-07-05T02:40:37.989Z,19.62
2018-07-05T02:41:37.950Z,19.63
2018-07-05T02:43:30.976Z,19.58
2018-07-05T02:44:30.920Z,19.62
2018-07-05T02:46:23.769Z,19.58
2018-07-05T02:47:23.710Z,19.62
2018-07-05T02:49:16.605Z,19.54
2018-07-05T02:50:16.508Z,19.44
2018-07-05T02:52:09.300Z,19.45
2018-07-05T02:53:09.275Z,19.41
2018-07-05T02:55:02.290Z,19.44
2018-07-05T02:56:02.245Z,19.37
2018-07-05T02:57:55.421Z,19.48
2018-07-05T02:58:55.337Z,19.39
2018-07-05T03:00:48.385Z,19.39
2018-07-05T03:01:48.365Z,19.34
2018-07-05T03:03:41.359Z,19.37
2018-07-05T03:04:41.314Z,19.31
2018-07-05T03:06:34.145Z,19.33
2018-07-05T03:07:34.091Z,19.34
2018-07-05T03:09:26.971Z,19.29
2018-07-05T03:10:26.934Z,19.33
2018-07-05T03:12:19.911Z,19.31
2018-07-05T03:13:19.883Z,19.29
2018-07-05T03:15:13.077Z,19.29
2018-07-05T03:16:12.977Z,19.31
2018-07-05T03:18:05.978Z,19.30
2018-07-05T03:19:05.946Z,19.22
2018-07-05T03:20:58.997Z,19.34
2018-07-05T03:21:58.951Z,19.26
2018-07-05T03:23:52.038Z,19.24
2018-07-05T03:24:51.988Z,19.26
2018-07-05T03:26:44.996Z,19.21
2018-07-05T03:27:44.956Z,19.07
2018-07-05T03:29:38.136Z,19.15
2018-07-05T03:30:38.093Z,19.11
2018-07-05T03:32:31.096Z,19.12
2018-07-05T03:33:31.065Z,19.09
2018-07-05T03:35:24.090Z,19.08
2018-07-05T03:36:24.041Z,19.00
2018-07-05T03:38:16.867Z,19.00
2018-07-05T03:39:16.846Z,18.96
2018-07-05T03:41:09.761Z,18.93
2018-07-05T03:42:09.610Z,18.96
2018-07-05T03:44:02.629Z,18.99
2018-07-05T03:45:02.600Z,19.00
2018-07-05T03:46:55.831Z,18.99
2018-07-05T03:47:55.772Z,18.96
2018-07-05T03:49:48.850Z,18.95
2018-07-05T03:50:48.806Z,18.98
2018-07-05T03:52:41.820Z,18.95
2018-07-05T03:53:41.767Z,18.92
2018-07-05T03:55:34.608Z,18.93
2018-07-05T03:56:34.557Z,18.90
2018-07-05T03:58:27.564Z,18.95
2018-07-05T03:59:27.526Z,19.04
2018-07-05T04:01:20.363Z,18.99
2018-07-05T04:02:20.317Z,19.02
2018-07-05T04:04:13.297Z,19.02
2018-07-05T04:05:13.267Z,19.02
2018-07-05T04:07:06.152Z,19.07
2018-07-05T04:08:06.090Z,19.00
2018-07-05T04:09:59.077Z,19.11
2018-07-05T04:10:59.058Z,19.12
2018-07-05T04:12:52.066Z,19.18
2018-07-05T04:13:52.018Z,19.14
2018-07-05T04:15:45.185Z,19.16
2018-07-05T04:16:45.123Z,19.15
2018-07-05T04:18:38.107Z,19.15
2018-07-05T04:19:38.083Z,19.22
2018-07-05T04:21:31.362Z,19.24
2018-07-05T04:22:31.215Z,19.21
2018-07-05T04:24:24.243Z,19.26
2018-07-05T04:25:24.173Z,19.15
2018-07-05T04:27:17.180Z,19.26
2018-07-05T04:28:17.136Z,19.26
2018-07-05T04:30:09.973Z,19.31
2018-07-05T04:31:09.942Z,19.24
2018-07-05T04:33:03.012Z,19.26
2018-07-05T04:34:03.010Z,19.31
2018-07-05T04:35:55.997Z,19.26
2018-07-05T04:36:55.930Z,19.29
2018-07-05T04:38:49.289Z,19.34
2018-07-05T04:39:49.251Z,19.33
2018-07-05T04:41:42.722Z,19.37
2018-07-05T04:42:42.215Z,19.34
2018-07-05T04:44:35.148Z,19.45
2018-07-05T04:45:35.103Z,19.37
2018-07-05T04:47:28.112Z,19.54
2018-07-05T04:48:28.071Z,19.52
2018-07-05T04:50:21.079Z,19.56
2018-07-05T04:51:21.040Z,19.51
2018-07-05T04:53:14.287Z,19.66
2018-07-05T04:54:14.235Z,19.64
2018-07-05T04:56:07.222Z,19.77
2018-07-05T04:57:07.194Z,19.76
2018-07-05T04:59:00.379Z,19.79
2018-07-05T05:00:00.290Z,19.85
2018-07-05T05:01:53.300Z,19.95
2018-07-05T05:02:53.274Z,20.04
2018-07-05T05:04:46.290Z,20.21
2018-07-05T05:05:46.236Z,20.21
2018-07-05T05:07:39.083Z,20.26
2018-07-05T05:08:39.059Z,20.44
2018-07-05T05:10:32.071Z,20.55
2018-07-05T05:11:32.023Z,20.60
2018-07-05T05:13:25.030Z,20.72
2018-07-05T05:14:24.993Z,20.77
2018-07-05T05:16:17.850Z,20.80
2018-07-05T05:17:17.796Z,20.90
2018-07-05T05:19:10.767Z,21.05
2018-07-05T05:20:10.748Z,21.07
2018-07-05T05:22:03.586Z,21.07
2018-07-05T05:23:03.544Z,21.06
2018-07-05T05:24:56.541Z,21.24
2018-07-05T05:25:56.505Z,21.25
2018-07-05T05:27:49.326Z,21.32
2018-07-05T05:28:49.305Z,21.29
2018-07-05T05:30:42.314Z,21.42
2018-07-05T05:31:42.286Z,21.40
2018-07-05T05:33:35.261Z,21.50
2018-07-05T05:34:35.233Z,21.52
2018-07-05T05:36:28.427Z,21.57
2018-07-05T05:37:28.351Z,21.55
2018-07-05T05:39:21.350Z,21.61
2018-07-05T05:40:21.326Z,21.57
2018-07-05T05:42:14.635Z,21.48
2018-07-05T05:43:14.565Z,21.60
2018-07-05T05:45:07.417Z,21.60
2018-07-05T05:46:07.346Z,21.66
2018-07-05T05:48:00.404Z,21.79
2018-07-05T05:49:00.348Z,21.70
2018-07-05T05:50:53.508Z,21.91
2018-07-05T05:51:53.451Z,21.91
2018-07-05T05:53:46.476Z,21.91
2018-07-05T05:54:46.423Z,21.83
2018-07-05T05:56:39.478Z,21.92
2018-07-05T05:57:39.409Z,21.95
2018-07-05T05:59:32.450Z,21.91
2018-07-05T06:00:32.402Z,21.91
2018-07-05T06:02:25.422Z,21.92
2018-07-05T06:03:25.382Z,21.93
2018-07-05T06:05:18.513Z,21.95
2018-07-05T06:06:18.482Z,21.93
2018-07-05T06:08:11.375Z,21.99
2018-07-05T06:09:11.272Z,22.07
2018-07-05T06:11:04.092Z,22.11
2018-07-05T06:12:04.065Z,22.17
2018-07-05T06:13:57.081Z,22.17
2018-07-05T06:14:57.036Z,22.10
2018-07-05T06:16:49.899Z,22.10
2018-07-05T06:17:49.874Z,22.13
2018-07-05T06:19:42.911Z,22.25
2018-07-05T06:20:42.858Z,22.25
2018-07-05T06:22:35.883Z,22.26
2018-07-05T06:23:35.829Z,22.35
2018-07-05T06:25:28.825Z,22.22
2018-07-05T06:26:28.718Z,22.18
2018-07-05T06:28:21.735Z,22.25
2018-07-05T06:29:21.686Z,22.33
2018-07-05T06:31:14.700Z,22.36
2018-07-05T06:32:14.660Z,22.44
2018-07-05T06:34:07.921Z,22.43
2018-07-05T06:35:07.810Z,22.41
2018-07-05T06:37:00.798Z,22.39
2018-07-05T06:38:00.777Z,22.44
2018-07-05T06:39:54.030Z,22.41
2018-07-05T06:40:53.870Z,22.51
2018-07-05T06:42:46.890Z,22.53
2018-07-05T06:43:46.866Z,22.51
2018-07-05T06:45:39.886Z,22.59
2018-07-05T06:46:39.826Z,22.55
2018-07-05T06:48:32.655Z,22.62
2018-07-05T06:49:32.629Z,22.63
2018-07-05T06:51:25.652Z,22.70
2018-07-05T06:52:25.614Z,22.68
2018-07-05T06:54:18.624Z,22.72
2018-07-05T06:55:18.599Z,22.73
2018-07-05T06:57:11.744Z,22.81
2018-07-05T06:58:11.683Z,22.78
2018-07-05T07:00:04.750Z,22.73
2018-07-05T07:01:04.711Z,22.75
2018-07-05T07:02:57.968Z,22.63
2018-07-05T07:03:57.821Z,22.76
2018-07-05T07:05:50.859Z,22.75
2018-07-05T07:06:50.815Z,22.78
2018-07-05T07:08:43.625Z,22.80
2018-07-05T07:09:43.602Z,22.83
2018-07-05T07:11:36.769Z,22.53
2018-07-05T07:12:36.706Z,22.62
2018-07-05T07:14:29.719Z,22.80
2018-07-05T07:15:29.690Z,22.78
2018-07-05T07:17:22.708Z,22.80
2018-07-05T07:18:22.657Z,22.87
2018-07-05T07:20:16.486Z,22.84
2018-07-05T07:21:16.452Z,22.83
2018-07-05T07:23:09.465Z,22.88
2018-07-05T07:24:09.421Z,22.93
2018-07-05T07:26:02.447Z,22.93
2018-07-05T07:27:02.400Z,22.87
2018-07-05T07:28:55.218Z,22.96
2018-07-05T07:29:55.198Z,23.03
2018-07-05T07:31:48.264Z,23.02
2018-07-05T07:32:48.177Z,23.12
2018-07-05T07:34:41.174Z,23.10
2018-07-05T07:35:41.150Z,23.12
2018-07-05T07:37:34.375Z,23.00
2018-07-05T07:38:34.241Z,22.99
2018-07-05T07:40:27.249Z,23.23
2018-07-05T07:41:27.213Z,23.23
2018-07-05T07:43:20.236Z,23.36
2018-07-05T07:44:20.195Z,23.50
2018-07-05T07:46:13.056Z,23.56
2018-07-05T07:47:13.033Z,23.59
2018-07-05T07:49:06.040Z,23.66
2018-07-05T07:50:06.007Z,23.73
2018-07-05T07:51:59.035Z,23.63
2018-07-05T07:52:58.979Z,23.58
2018-07-05T07:54:51.810Z,23.50
2018-07-05T07:55:51.787Z,23.54
2018-07-05T07:57:44.802Z,23.55
2018-07-05T07:58:44.752Z,23.74
2018-07-05T08:00:37.758Z,23.69
2018-07-05T08:01:37.763Z,23.80
2018-07-05T08:03:30.938Z,23.91
2018-07-05T08:04:30.833Z,23.71
2018-07-05T08:06:23.851Z,23.84
2018-07-05T08:07:23.779Z,23.69
2018-07-05T08:09:16.798Z,23.86
2018-07-05T08:10:16.748Z,23.88
2018-07-05T08:12:09.605Z,23.98
2018-07-05T08:13:09.589Z,23.92
2018-07-05T08:15:02.677Z,23.93
2018-07-05T08:16:02.536Z,23.92
2018-07-05T08:17:55.536Z,23.73
2018-07-05T08:18:55.514Z,23.92
2018-07-05T08:20:48.457Z,24.10
2018-07-05T08:21:48.348Z,23.54
2018-07-05T08:23:41.353Z,23.40
2018-07-05T08:24:41.315Z,23.51
2018-07-05T08:26:34.317Z,23.87
2018-07-05T08:27:34.284Z,24.01
2018-07-05T08:29:27.438Z,24.23
2018-07-05T08:30:27.390Z,24.18
2018-07-05T08:32:20.399Z,24.43
2018-07-05T08:33:20.356Z,24.55
2018-07-05T08:35:13.374Z,24.74
2018-07-05T08:36:13.340Z,24.85
2018-07-05T08:38:06.388Z,25.01
2018-07-05T08:39:06.341Z,25.04
2018-07-05T08:40:59.354Z,25.14
2018-07-05T08:41:59.334Z,25.17
2018-07-05T08:43:52.537Z,25.23
2018-07-05T08:44:52.486Z,25.25
2018-07-05T08:46:45.440Z,25.36
2018-07-05T08:47:45.395Z,25.32
2018-07-05T08:49:38.425Z,25.46
2018-07-05T08:50:38.387Z,25.33
2018-07-05T08:52:31.212Z,25.51
2018-07-05T08:53:31.177Z,25.62
2018-07-05T08:55:24.220Z,25.78
2018-07-05T08:56:24.173Z,25.69
2018-07-05T08:58:17.256Z,25.85
2018-07-05T08:59:17.175Z,25.84
2018-07-05T09:01:10.129Z,26.03
2018-07-05T09:02:09.974Z,26.06
2018-07-05T09:04:03.010Z,26.05
2018-07-05T09:05:02.986Z,26.02
2018-07-05T09:06:55.991Z,26.21
2018-07-05T09:07:55.950Z,26.26
2018-07-05T09:09:49.160Z,26.15
2018-07-05T09:10:49.061Z,26.21
2018-07-05T09:12:42.096Z,26.25
2018-07-05T09:13:42.062Z,26.26
2018-07-05T09:15:35.088Z,26.34
2018-07-05T09:16:35.032Z,26.51
2018-07-05T09:18:28.058Z,26.06
2018-07-05T09:19:28.012Z,26.02
2018-07-05T09:21:21.021Z,26.47
2018-07-05T09:22:20.971Z,26.19
2018-07-05T09:24:13.802Z,26.38
2018-07-05T09:25:13.782Z,26.60
2018-07-05T09:27:06.632Z,26.44
2018-07-05T09:28:06.582Z,26.56
2018-07-05T09:29:59.581Z,26.36
2018-07-05T09:30:59.548Z,26.23
2018-07-05T09:32:52.590Z,26.68
2018-07-05T09:33:52.535Z,26.78
2018-07-05T09:35:45.725Z,27.00
2018-07-05T09:36:45.682Z,27.11
2018-07-05T09:38:38.758Z,27.11
2018-07-05T09:39:38.767Z,27.33
2018-07-05T09:41:31.917Z,27.29
2018-07-05T09:42:31.867Z,27.42
2018-07-05T09:44:24.917Z,27.63
2018-07-05T09:45:24.872Z,27.70
2018-07-05T09:47:18.152Z,27.64
2018-07-05T09:48:18.017Z,27.48
2018-07-05T09:50:11.036Z,27.22
2018-07-05T09:51:10.993Z,27.32
2018-07-05T09:53:03.991Z,27.27
2018-07-05T09:54:03.963Z,27.42
2018-07-05T09:55:57.096Z,27.65
2018-07-05T09:56:57.057Z,27.47
2018-07-05T09:58:50.067Z,27.30
2018-07-05T09:59:50.031Z,27.44
2018-07-05T10:01:43.153Z,27.47
2018-07-05T10:02:43.127Z,27.47
2018-07-05T10:04:35.976Z,27.59
2018-07-05T10:05:35.931Z,27.21
2018-07-05T10:07:28.928Z,27.15
2018-07-05T10:08:28.979Z,27.35
2018-07-05T10:10:22.115Z,27.58
2018-07-05T10:11:22.034Z,27.71
2018-07-05T10:13:15.170Z,27.90
2018-07-05T10:14:15.032Z,28.04
2018-07-05T10:16:08.038Z,28.22
2018-07-05T10:17:08.000Z,27.96
2018-07-05T10:19:01.027Z,28.22
2018-07-05T10:20:01.005Z,28.25
2018-07-05T10:21:54.023Z,28.52
2018-07-05T10:22:54.005Z,28.70
2018-07-05T10:24:46.979Z,28.89
2018-07-05T10:25:46.967Z,28.91
2018-07-05T10:27:39.998Z,28.79
2018-07-05T10:28:39.933Z,28.51
2018-07-05T10:30:32.967Z,28.63
2018-07-05T10:31:32.912Z,28.85
2018-07-05T10:33:26.057Z,28.86
2018-07-05T10:34:26.015Z,29.34
2018-07-05T10:36:19.054Z,29.12
2018-07-05T10:37:19.054Z,29.36
2018-07-05T10:39:12.274Z,30.18
2018-07-05T10:40:12.155Z,30.43
2018-07-05T10:42:05.148Z,30.69
2018-07-05T10:43:05.138Z,30.85
2018-07-05T10:44:58.158Z,30.92
2018-07-05T10:45:58.174Z,31.00
2018-07-05T10:47:50.960Z,30.99
2018-07-05T10:48:50.942Z,31.05
2018-07-05T10:50:43.968Z,31.15
2018-07-05T10:51:43.933Z,31.00
2018-07-05T10:53:36.935Z,30.96
2018-07-05T10:54:36.909Z,30.91
2018-07-05T10:56:29.885Z,31.27
2018-07-05T10:57:29.838Z,31.36
2018-07-05T10:59:22.868Z,31.55
2018-07-05T11:00:22.858Z,31.44
2018-07-05T11:02:15.885Z,31.56
2018-07-05T11:03:15.834Z,31.99
2018-07-05T11:05:08.704Z,32.36
2018-07-05T11:06:08.659Z,32.43
2018-07-05T11:08:01.668Z,32.74
2018-07-05T11:09:01.640Z,33.09
2018-07-05T11:10:54.664Z,32.96
2018-07-05T11:11:54.641Z,33.20
2018-07-05T11:13:47.720Z,33.90
2018-07-05T11:14:47.775Z,34.11
2018-07-05T11:16:40.831Z,33.81
2018-07-05T11:17:40.744Z,33.42
2018-07-05T11:19:33.577Z,33.17
2018-07-05T11:20:33.545Z,33.43
2018-07-05T11:22:26.619Z,33.42
2018-07-05T11:23:26.576Z,32.74
2018-07-05T11:25:19.629Z,32.90
2018-07-05T11:26:19.620Z,33.32
2018-07-05T11:28:12.841Z,33.32
2018-07-05T11:29:12.782Z,32.77
2018-07-05T11:31:05.632Z,33.04
2018-07-05T11:32:05.590Z,33.32
2018-07-05T11:33:58.601Z,33.19
2018-07-05T11:34:58.587Z,32.90
2018-07-05T11:36:51.505Z,33.02
2018-07-05T11:37:51.466Z,33.12
2018-07-05T11:39:44.480Z,33.27
2018-07-05T11:40:44.456Z,33.65
2018-07-05T11:42:37.528Z,32.46
2018-07-05T11:43:37.464Z,32.65
2018-07-05T11:45:30.307Z,32.85
2018-07-05T11:46:30.300Z,33.27
2018-07-05T11:48:23.332Z,33.62
2018-07-05T11:49:23.289Z,34.06
2018-07-05T11:51:16.325Z,34.23
2018-07-05T11:52:16.310Z,33.77
2018-07-05T11:54:09.210Z,33.53
2018-07-05T11:55:09.167Z,33.98
2018-07-05T11:57:02.010Z,33.55
2018-07-05T11:58:01.992Z,33.23
2018-07-05T11:59:55.054Z,33.20
2018-07-05T12:00:55.042Z,33.50
2018-07-05T12:02:48.058Z,34.05
2018-07-05T12:03:48.008Z,33.77
2018-07-05T12:05:41.021Z,33.58
2018-07-05T12:06:40.996Z,33.05
2018-07-05T12:08:34.045Z,32.41
2018-07-05T12:09:33.991Z,32.46
2018-07-05T12:11:26.914Z,32.53
2018-07-05T12:12:26.883Z,33.05
2018-07-05T12:14:19.916Z,33.17
2018-07-05T12:15:19.893Z,33.52
2018-07-05T12:17:12.896Z,33.42
2018-07-05T12:18:12.875Z,33.01
2018-07-05T12:20:05.975Z,32.87
2018-07-05T12:21:05.935Z,33.05
2018-07-05T12:22:58.941Z,33.02
2018-07-05T12:23:59.008Z,33.28
2018-07-05T12:25:52.121Z,33.24
2018-07-05T12:26:52.076Z,32.77
2018-07-05T12:28:45.094Z,32.53
2018-07-05T12:29:45.080Z,32.71
2018-07-05T12:31:38.221Z,32.43
2018-07-05T12:32:38.170Z,32.19
2018-07-05T12:34:31.026Z,32.00
2018-07-05T12:35:30.982Z,31.84
2018-07-05T12:37:24.012Z,31.66
2018-07-05T12:38:24.062Z,31.44
2018-07-05T12:40:17.205Z,31.21
2018-07-05T12:41:17.133Z,31.02
2018-07-05T12:43:10.136Z,30.69
2018-07-05T12:44:10.111Z,30.72
2018-07-05T12:46:03.141Z,30.54
2018-07-05T12:47:03.091Z,30.55
2018-07-05T12:48:56.131Z,30.40
2018-07-05T12:49:56.112Z,30.00
2018-07-05T12:51:49.039Z,29.88
2018-07-05T12:52:48.917Z,29.60
2018-07-05T12:54:41.943Z,29.95
2018-07-05T12:55:41.917Z,30.15
2018-07-05T12:57:34.820Z,30.12
2018-07-05T12:58:34.730Z,30.08
2018-07-05T13:00:27.734Z,30.24
2018-07-05T13:01:27.708Z,30.13
2018-07-05T13:03:20.733Z,30.25
2018-07-05T13:04:20.847Z,30.25
2018-07-05T13:06:13.574Z,30.10
2018-07-05T13:07:13.512Z,30.16
2018-07-05T13:09:06.650Z,30.39
2018-07-05T13:10:06.599Z,30.44
2018-07-05T13:11:59.624Z,30.48
2018-07-05T13:12:59.607Z,30.81
2018-07-05T13:14:52.434Z,31.17
2018-07-05T13:15:52.409Z,31.00
2018-07-05T13:17:45.436Z,31.03
2018-07-05T13:18:45.385Z,30.87
2018-07-05T13:20:38.424Z,30.62
2018-07-05T13:21:38.399Z,30.68
2018-07-05T13:23:31.560Z,30.97
2018-07-05T13:24:31.513Z,30.96
2018-07-05T13:26:24.589Z,30.75
2018-07-05T13:27:24.583Z,30.70
2018-07-05T13:29:17.686Z,30.44
2018-07-05T13:30:17.634Z,30.40
2018-07-05T13:32:10.509Z,29.90
2018-07-05T13:33:10.460Z,29.90
2018-07-05T13:35:03.459Z,30.27
2018-07-05T13:36:03.427Z,30.21
2018-07-05T13:37:56.626Z,29.75
2018-07-05T13:38:56.603Z,29.63
2018-07-05T13:40:49.600Z,29.86
2018-07-05T13:41:49.579Z,29.93
2018-07-05T13:43:42.858Z,29.63
2018-07-05T13:44:42.694Z,29.59
2018-07-05T13:46:35.715Z,29.53
2018-07-05T13:47:35.680Z,29.59
2018-07-05T13:49:28.699Z,29.04
2018-07-05T13:50:28.662Z,29.02
2018-07-05T13:52:21.499Z,29.02
2018-07-05T13:53:21.475Z,28.96
2018-07-05T13:55:14.505Z,29.27
2018-07-05T13:56:14.456Z,29.29
2018-07-05T13:58:07.925Z,29.39
2018-07-05T13:59:07.769Z,29.35
2018-07-05T14:01:00.793Z,29.49
2018-07-05T14:02:00.760Z,29.27
2018-07-05T14:03:53.778Z,29.42
2018-07-05T14:04:53.749Z,29.38
2018-07-05T14:06:46.601Z,29.65
2018-07-05T14:07:46.566Z,29.75
2018-07-05T14:09:39.582Z,29.63
2018-07-05T14:10:39.556Z,29.73
2018-07-05T14:12:32.585Z,29.91
2018-07-05T14:13:32.537Z,29.97
2018-07-05T14:15:25.408Z,29.81
2018-07-05T14:16:25.342Z,29.72
2018-07-05T14:18:18.224Z,29.75
2018-07-05T14:19:18.152Z,29.88
2018-07-05T14:21:11.011Z,29.86
2018-07-05T14:22:10.952Z,29.91
2018-07-05T14:24:04.000Z,29.78
2018-07-05T14:25:04.112Z,29.76
2018-07-05T14:26:57.158Z,29.59
2018-07-05T14:27:57.102Z,29.73
2018-07-05T14:29:50.175Z,30.23
2018-07-05T14:30:50.166Z,30.06
2018-07-05T14:32:43.353Z,30.43
2018-07-05T14:33:43.258Z,30.21
2018-07-05T14:35:36.118Z,30.16
2018-07-05T14:36:36.071Z,30.12
2018-07-05T14:38:29.166Z,29.91
2018-07-05T14:39:29.134Z,29.78
2018-07-05T14:41:22.090Z,29.93
2018-07-05T14:42:21.997Z,30.06
2018-07-05T14:44:15.033Z,30.21
2018-07-05T14:45:14.989Z,30.44
2018-07-05T14:47:08.016Z,30.25
2018-07-05T14:48:07.992Z,30.10
2018-07-05T14:50:01.097Z,29.86
2018-07-05T14:51:01.052Z,30.05
2018-07-05T14:52:54.057Z,30.24
2018-07-05T14:53:54.038Z,30.37
2018-07-05T14:55:46.875Z,30.35
2018-07-05T14:56:46.838Z,30.39
2018-07-05T14:58:39.701Z,30.48
2018-07-05T14:59:39.692Z,30.47
2018-07-05T15:01:32.807Z,30.31
2018-07-05T15:02:32.683Z,30.23
2018-07-05T15:04:25.680Z,29.98
2018-07-05T15:05:25.680Z,30.00
2018-07-05T15:07:18.767Z,30.06
2018-07-05T15:08:18.599Z,30.06
2018-07-05T15:10:11.630Z,30.03
2018-07-05T15:11:11.575Z,29.93
2018-07-05T15:13:04.404Z,29.49
2018-07-05T15:14:04.429Z,29.39
2018-07-05T15:15:57.639Z,29.32
2018-07-05T15:16:57.570Z,29.34
2018-07-05T15:18:50.408Z,29.44
2018-07-05T15:19:50.384Z,29.49
2018-07-05T15:21:43.423Z,29.71
2018-07-05T15:22:43.374Z,29.78
2018-07-05T15:24:36.304Z,30.12
2018-07-05T15:25:36.285Z,30.44
2018-07-05T15:27:29.339Z,30.50
2018-07-05T15:28:29.295Z,30.77
2018-07-05T15:30:22.313Z,31.03
2018-07-05T15:31:22.280Z,30.90
2018-07-05T15:33:15.115Z,30.90
2018-07-05T15:34:15.081Z,31.00
2018-07-05T15:36:08.141Z,31.28
2018-07-05T15:37:08.094Z,31.58
2018-07-05T15:39:01.101Z,31.78
2018-07-05T15:40:01.078Z,31.65
2018-07-05T15:41:53.919Z,31.99
2018-07-05T15:42:53.891Z,32.15
2018-07-05T15:44:46.939Z,32.36
2018-07-05T15:45:46.904Z,32.27
2018-07-05T15:47:39.905Z,32.34
2018-07-05T15:48:39.889Z,31.81
2018-07-05T15:50:33.116Z,31.85
2018-07-05T15:51:33.066Z,31.99
2018-07-05T15:53:26.130Z,31.87
2018-07-05T15:54:26.068Z,31.76
2018-07-05T15:56:19.240Z,31.77
2018-07-05T15:57:19.205Z,31.92
2018-07-05T15:59:12.240Z,31.99
2018-07-05T16:00:12.200Z,31.85
2018-07-05T16:02:05.050Z,31.89
2018-07-05T16:03:05.010Z,31.92
2018-07-05T16:04:57.951Z,31.65
2018-07-05T16:05:57.897Z,31.62
2018-07-05T16:07:50.909Z,31.34
2018-07-05T16:08:50.879Z,31.03
2018-07-05T16:10:43.886Z,31.09
2018-07-05T16:11:43.856Z,31.24
2018-07-05T16:13:36.824Z,31.14
2018-07-05T16:14:36.780Z,30.92
2018-07-05T16:16:29.777Z,30.90
2018-07-05T16:17:29.762Z,30.47
2018-07-05T16:19:22.893Z,30.69
2018-07-05T16:20:22.748Z,30.88
2018-07-05T16:22:15.879Z,31.07
2018-07-05T16:23:15.819Z,30.85
2018-07-05T16:25:08.837Z,30.72
2018-07-05T16:26:08.866Z,30.23
2018-07-05T16:28:02.072Z,30.50
2018-07-05T16:29:01.936Z,30.54
2018-07-05T16:30:54.938Z,30.43
2018-07-05T16:31:54.921Z,30.06
2018-07-05T16:33:47.943Z,30.09
2018-07-05T16:34:47.889Z,30.16
2018-07-05T16:36:40.931Z,30.12
2018-07-05T16:37:40.940Z,30.25
2018-07-05T16:39:33.921Z,30.23
2018-07-05T16:40:33.977Z,30.19
2018-07-05T16:42:26.816Z,30.16
2018-07-05T16:43:26.680Z,30.06
2018-07-05T16:45:19.581Z,29.87
2018-07-05T16:46:19.532Z,29.65
2018-07-05T16:48:12.533Z,29.51
2018-07-05T16:49:12.502Z,29.39
2018-07-05T16:51:05.353Z,29.42
2018-07-05T16:52:05.300Z,29.51
2018-07-05T16:53:58.342Z,29.63
2018-07-05T16:54:58.286Z,29.34
2018-07-05T16:56:51.302Z,29.38
2018-07-05T16:57:51.275Z,29.47
2018-07-05T16:59:44.287Z,29.22
2018-07-05T17:00:44.308Z,29.34
2018-07-05T17:02:37.070Z,29.61
2018-07-05T17:03:37.038Z,29.68
2018-07-05T17:05:29.937Z,29.51
2018-07-05T17:06:29.895Z,29.49
2018-07-05T17:08:22.903Z,29.54
2018-07-05T17:09:22.867Z,29.56
2018-07-05T17:11:15.897Z,29.71
2018-07-05T17:12:15.853Z,29.65
2018-07-05T17:14:08.723Z,29.79
2018-07-05T17:15:08.682Z,29.13
2018-07-05T17:17:01.731Z,29.35
2018-07-05T17:18:01.633Z,29.50
2018-07-05T17:19:54.707Z,29.31
2018-07-05T17:20:54.688Z,29.17
2018-07-05T17:22:47.809Z,28.79
2018-07-05T17:23:47.792Z,28.78
2018-07-05T17:25:40.814Z,28.96
2018-07-05T17:26:40.767Z,28.88
2018-07-05T17:28:34.013Z,28.56
2018-07-05T17:29:33.919Z,28.70
2018-07-05T17:31:26.968Z,28.70
2018-07-05T17:32:26.927Z,28.70
2018-07-05T17:34:20.146Z,28.78
2018-07-05T17:35:20.132Z,28.84
2018-07-05T17:37:12.982Z,28.97
2018-07-05T17:38:12.930Z,29.04
2018-07-05T17:40:05.908Z,29.14
2018-07-05T17:41:05.902Z,29.23
2018-07-05T17:42:59.127Z,29.29
2018-07-05T17:43:59.018Z,29.02
2018-07-05T17:45:52.044Z,29.04
2018-07-05T17:46:51.995Z,28.85
2018-07-05T17:48:45.029Z,28.81
2018-07-05T17:49:44.990Z,28.78
2018-07-05T17:51:37.900Z,28.57
2018-07-05T17:52:37.798Z,28.57
2018-07-05T17:54:30.667Z,28.51
2018-07-05T17:55:30.595Z,28.44
2018-07-05T17:57:23.601Z,28.37
2018-07-05T17:58:23.603Z,28.22
2018-07-05T18:00:16.918Z,28.14
2018-07-05T18:01:16.806Z,28.14
2018-07-05T18:03:09.839Z,28.27
2018-07-05T18:04:09.849Z,28.10
2018-07-05T18:06:03.148Z,28.12
2018-07-05T18:07:02.920Z,28.08
2018-07-05T18:08:55.985Z,28.02
2018-07-05T18:09:55.944Z,27.92
2018-07-05T18:11:48.784Z,27.74
2018-07-05T18:12:48.736Z,27.77
2018-07-05T18:14:41.576Z,27.74
2018-07-05T18:15:41.538Z,27.67
2018-07-05T18:17:34.365Z,27.60
2018-07-05T18:18:34.339Z,27.58
2018-07-05T18:20:27.557Z,27.55
2018-07-05T18:21:27.435Z,27.52
2018-07-05T18:23:20.461Z,27.36
2018-07-05T18:24:20.434Z,27.33
2018-07-05T18:26:13.462Z,27.30
2018-07-05T18:27:13.419Z,27.44
2018-07-05T18:29:06.413Z,27.45
2018-07-05T18:30:06.465Z,27.30
2018-07-05T18:31:59.665Z,27.39
2018-07-05T18:32:59.547Z,27.36